Portada
METAR-TAF:

METAR-TAF

Aeroports :

Castres, França

latitud: 43-33-25N, longitud: 2-17-21E, altitud: 239 m

Observació

L'informe es va fer fa 22 minuts, a les 10:30 UTC
Vent 7 kt del Oest, variant entre Oest/Sud-Oest i Nord/Nord-Oest
Temperatura 25°C
Humitat 41%
Pressió 1018 hPa
Visibilitat 10 km o més
sense núvols per sota de 1500 mi sense presència de cumulonimbus.

METAR: LFCK 161030Z AUTO 28007KT 250V340 CAVOK 25/11 Q1018 NOSIG

Hora: 12:52 (10:52 UTC)

Pronòstic

L'informe es va fer fa 2 hores i 52 minuts, a les 08:00 UTC
Pronòstic vàlid del 16 a les 09 UTC al 16 a les 18 UTC
Vent 3 kt amb direcció variable
Visibilitat 10 km o més
sense núvols per sota de 1500 mi sense presència de cumulonimbus.
Evolucionant progressivament
l' 16 a les 10 UTC al 16 a les 12 UTC
Vent 8 kt del Oest/Nord-Oest

TAF: LFCK 160800Z 1609/1618 VRB03KT CAVOK BECMG 1610/1612 29008KT

Observacions i pronòstics meteorològics de més de 4000 aeroports (METAR i TAF).

Les estacions disponibles són els punts grocs i vermells al mapa.

Posi el ratolí al punt desitjat per veure el nom de l'estació.

Feu clic per veure les observacions i els pronòstics meteorològics.

Per canviar el mapa: feu clic els botons verds amb una creu de color negre per apropar; al botó verd amb un guió per allunyar la imatge; o en les fletxes verdes per a mapes adjacents.


METAR-TAF: